Airfield :
LOGIN :

Register | Disclaimer

   EN    FR    IT 

 










Legend :    VFR   Marginal VFR   IFR   Intensive IFR   Very Intensive IFR
Visi :
Ceiling :
>= 8 km
>= 3000ft
5 to 8 km
1000 to 3000 ft
1500m to 5 km
500 to 1000 ft
800 to 1500m
200 to 500 ft
< 800m
< 200 ft
Symbols :   Thunderstorms  Fog  Heavy snow  Heavy precipitations  Wind > 20 kt
SIGMETs :     Misc.  Thunderstorms  Icing  Turbulence  Mountain Waves  Volcanic Ashes






- Airport Elevation : 42 ft
- IATA code : KGD


UMKK - Khrabrava - Kaliningrad

CURRENT METAR :
  • 240600Z 12003MPS 090V150 CAVOK 05/00 Q1012 R24/CLRD95 NOSIG RMK QFE758/1010

EXPIRED METARs :
  • 240530Z 13002MPS CAVOK 04/01 Q1012 R24/CLRD95 NOSIG RMK QFE758/1011
  • 240500Z 14002MPS 100V160 CAVOK 02/01 Q1012 R24/CLRD95 NOSIG RMK QFE758/1011
  • 240430Z 14001MPS CAVOK 02/01 Q1012 R24/95D NOSIG RMK QFE758/1011
  • 240400Z 13002MPS CAVOK 01/M00 Q1013 R24/CLRD95 NOSIG RMK QFE758/1011
  • 240330Z 14002MPS CAVOK M00/M01 Q1013 R24/CLRD95 NOSIG RMK QFE759/1012
  • 240300Z 15002MPS CAVOK M00/M01 Q1013 R24/CLRD95 NOSIG RMK QFE759/1012
  • 240230Z 15002MPS CAVOK M00/M01 Q1014 R24/CLRD95 NOSIG RMK QFE759/1012
  • 240200Z 16002MPS CAVOK 01/M01 Q1014 R24/CLRD95 NOSIG RMK QFE759/1012
  • 240130Z 15003MPS CAVOK 02/M01 Q1014 R24/CLRD95 NOSIG RMK QFE759/1013

TAF TAF UMKK
Valid from the 24 at 06:00 until the 25 at 06:00 UTC


240450Z 2406/2506 09003G08MPS 6000 BKN016
BECMG 2410/2412 02006G11MPS
TEMPO 2412/2415 -SHRA BKN014CB
BECMG 2415/2418 OVC013
TEMPO 2418/2506 4000 -RA BR BKN005 OVC010



MET'MAP, your aeronautical weather chart ! - Copyright ORBIFLY December 2007 - Disclaimer

ORBIFLY MET'MAP TEAM :

Programming & Development : Alexandra Zaïnal
Original concept : Baudouin d'Aumeries
Technical & hardware support : Manuel Goepfert
Assistance : Marc-Olivier Méhu




SOURCES & CREDITS :

   NOAA